Latest Weather Observations for Sydney Olympic Park

IDN60801

Issued at 11:04 am EST Tuesday 21 April 2015 (issued every 30 minutes, with the page automatically refreshed every 10 minutes)

About weather observations | Map of weather stations | Latest weather observations for NSW | Other Formats
Station Details ID: 066212 Name: SYDNEY OLYMPIC PARK AWS (ARCHERY CENTRE) Lat: -33.83 Lon: 151.07 Height: 4.0 m
Data from the previous 72 hours. | See also: Recent months at Sydney Olympic Park
Date/Time
EST
Temp
°C
App
Temp
°C
Dew
Point
Rel
Hum
%
Delta-T
°C
Wind Press
QNH
hPa
Press
MSL
hPa
Rain
since 9 am
mm
Dir
 
Spd
km/h
Gust
km/h
Spd
kts
Gust
kts
21/11:00am 14.5 10.1 13.0 91 0.8 S 28 50 15 27 - - 4.2
21/10:30am 14.8 10.4 12.8 88 1.1 S 28 48 15 26 - - 3.2
21/10:00am 14.9 9.8 13.1 89 1.0 SSE 32 57 17 31 - - 2.6
21/09:32am 15.5 10.9 13.5 88 1.1 S 30 56 16 30 - - 1.4
21/09:30am 15.3 10.8 13.7 90 0.9 S 30 43 16 23 - - 1.4
21/09:00am 15.4 10.4 13.4 88 1.1 S 32 50 17 27 - - 137.2
21/08:30am 15.1 10.0 13.0 87 1.2 S 32 52 17 28 - - 136.4
21/08:00am 14.9 10.1 12.8 87 1.2 SSE 30 48 16 26 - - 135.2
21/07:53am 15.1 10.8 13.1 88 1.1 S 28 48 15 26 - - 134.6
21/07:30am 14.7 10.2 12.6 87 1.1 SSE 28 39 15 21 - - 133.6
21/07:06am 15.0 10.7 13.2 89 1.0 SSE 28 46 15 25 - - 132.0
21/07:00am 14.8 10.5 13.2 90 0.9 SSE 28 43 15 23 - - 131.6
21/06:32am 14.9 10.1 12.9 88 1.1 S 30 52 16 28 - - 130.8
21/06:30am 14.8 10.5 13.2 90 0.9 S 28 44 15 24 - - 130.6
21/06:00am 14.8 10.4 12.8 88 1.1 S 28 52 15 28 - - 129.0
21/05:30am 15.1 10.8 13.3 89 1.0 SSE 28 54 15 29 - - 126.2
21/05:03am 15.2 10.6 13.4 89 1.0 S 30 52 16 28 - - 124.4
21/05:00am 15.2 10.7 13.7 91 0.8 S 30 46 16 25 - - 124.4
21/04:30am 15.1 10.5 13.6 91 0.8 S 30 50 16 27 - - 121.6
21/04:15am 15.0 10.9 13.9 93 0.6 S 28 50 15 27 - - 120.2
21/04:00am 15.0 11.3 14.0 94 0.6 S 26 46 14 25 - - 117.8
21/03:30am 14.7 10.6 13.7 94 0.6 S 28 56 15 30 - - 114.2
21/03:00am 15.0 10.8 13.5 91 0.8 S 28 46 15 25 - - 108.6
21/02:30am 15.1 10.8 13.1 88 1.1 SSE 28 50 15 27 - - 105.4
21/02:01am 15.5 11.2 13.3 87 1.2 SSE 28 46 15 25 - - 103.6
21/02:00am 15.5 11.3 13.5 88 1.1 SSE 28 44 15 24 - - 103.6
21/01:30am 15.4 10.8 13.6 89 1.0 SSE 30 54 16 29 - - 102.0
21/01:05am 15.6 11.6 14.0 90 0.9 SSE 28 48 15 26 - - 100.4
21/01:00am 15.7 12.4 14.1 90 0.9 SSE 24 39 13 21 - - 99.8
21/12:30am 15.7 10.9 14.1 90 0.9 S 32 54 17 29 - - 98.0
21/12:04am 15.8 11.9 14.5 92 0.7 S 28 54 15 29 - - 97.4
21/12:00am 15.6 11.3 14.5 93 0.6 S 30 44 16 24 - - 97.2
 
Date/Time
EST
Temp
°C
App
Temp
°C
Dew
Point
Rel
Hum
%
Delta-T
°C
Wind Press
QNH
hPa
Press
MSL
hPa
Rain
since 9 am
mm
Dir
 
Spd
km/h
Gust
km/h
Spd
kts
Gust
kts
20/11:30pm 15.4 12.9 15.1 98 0.2 SSE 22 43 12 23 - - 94.8
20/11:00pm 15.3 11.9 14.7 96 0.3 SSE 26 43 14 23 - - 87.8
20/10:49pm 15.4 11.6 14.6 95 0.5 S 28 50 15 27 - - 85.4
20/10:30pm 15.7 11.9 14.7 94 0.6 S 28 44 15 24 - - 82.8
20/10:00pm 15.8 11.2 15.0 95 0.5 S 33 56 18 30 - - 80.0
20/09:36pm 15.7 12.0 14.9 95 0.5 S 28 46 15 25 - - 76.4
20/09:30pm 15.8 12.9 15.2 96 0.3 S 24 41 13 22 - - 75.6
20/09:00pm 15.8 12.2 15.2 96 0.3 S 28 52 15 28 - - 73.0
20/08:30pm 15.8 11.5 15.3 97 0.3 S 32 57 17 31 - - 70.2
20/08:00pm 15.6 11.1 15.0 96 0.3 SSE 32 67 17 36 - - 65.2
20/07:30pm 15.5 11.5 15.2 98 0.2 SSE 30 57 16 31 - - 61.0
20/07:19pm 15.8 12.3 15.5 98 0.2 SSE 28 46 15 25 - - 56.0
20/07:00pm 15.8 12.6 15.3 97 0.3 S 26 43 14 23 - - 52.0
20/06:30pm 15.9 12.4 15.4 97 0.3 SSE 28 52 15 28 - - 48.4
20/06:00pm 16.0 12.6 15.7 98 0.2 SSE 28 46 15 25 - - 43.4
20/05:30pm 16.0 11.7 15.5 97 0.3 SSE 32 61 17 33 - - 36.2
20/05:00pm 16.4 13.0 15.8 96 0.4 SSE 28 52 15 28 - - 32.2
20/04:30pm 16.1 12.6 15.6 97 0.3 SSE 28 56 15 30 - - 28.6
20/04:00pm 16.7 12.9 15.7 94 0.6 SSE 30 50 16 27 - - 21.6
20/03:30pm 16.3 12.7 15.2 93 0.6 SSE 28 54 15 29 - - 19.2
20/03:16pm 16.6 12.5 15.0 90 0.9 SSE 30 50 16 27 - - 17.8
20/03:00pm 17.0 13.1 15.5 91 0.9 SSE 30 52 16 28 - - 17.6
20/02:57pm 17.1 13.6 15.6 91 0.9 SSE 28 52 15 28 - - 17.6
20/02:30pm 16.7 14.9 15.9 95 0.5 SSE 20 37 11 20 - - 17.0
20/02:00pm 16.6 14.5 16.1 97 0.3 SSE 22 41 12 22 - - 16.0
20/01:30pm 16.4 14.0 15.4 94 0.6 S 22 33 12 18 - - 11.0
20/01:07pm 16.6 13.7 15.1 91 0.9 SSE 24 43 13 23 - - 9.8
20/01:06pm 16.5 13.6 15.2 92 0.8 SSE 24 43 13 23 - - 9.6
20/01:00pm 16.6 13.7 15.1 91 0.9 S 24 39 13 21 - - 9.4
20/12:52pm 16.4 13.9 15.1 92 0.8 S 22 39 12 21 - - 9.2
20/12:39pm 16.6 13.2 14.8 89 1.0 S 26 48 14 26 - - 8.8
20/12:30pm 16.5 13.9 14.9 90 0.9 S 22 41 12 22 - - 8.6
20/12:28pm 16.5 13.9 14.9 90 0.9 S 22 41 12 22 - - 8.6
20/12:00pm 16.6 15.2 15.6 94 0.6 S 17 28 9 15 - - 8.4
20/11:58am 16.6 15.2 15.6 94 0.6 S 17 28 9 15 - - 8.4
20/11:30am 15.9 14.3 15.1 95 0.5 S 17 35 9 19 - - 8.2
20/11:06am 15.6 13.5 14.8 95 0.5 SSW 19 30 10 16 - - 6.8
20/11:00am 15.6 13.9 14.6 94 0.6 SSW 17 24 9 13 - - 6.4
20/10:56am 15.5 14.2 14.7 95 0.5 SSW 15 24 8 13 - - 6.2
20/10:30am 15.0 12.4 13.9 93 0.6 SSW 20 35 11 19 - - 5.8
20/10:00am 14.7 13.9 14.1 96 0.3 SSW 11 24 6 13 - - 4.0
20/09:33am 14.4 13.1 13.6 95 0.4 SW 13 24 7 13 - - 1.2
20/09:30am 14.5 13.2 13.7 95 0.4 SW 13 24 7 13 - - 0.8
20/09:09am 14.3 13.3 13.3 94 0.6 SSW 11 22 6 12 - - 0.2
20/09:00am 14.3 12.1 13.2 93 0.6 S 17 24 9 13 - - 6.8
20/08:44am 14.3 10.7 12.9 91 0.8 S 24 35 13 19 - - 6.2
20/08:30am 14.4 12.1 13.1 92 0.7 SSW 17 28 9 15 - - 5.8
20/08:00am 13.4 12.9 12.6 95 0.4 SW 7 15 4 8 - - 5.4
20/07:37am 13.0 11.2 12.2 95 0.4 SW 13 19 7 10 - - 5.4
20/07:30am 12.9 11.9 12.3 96 0.3 SW 9 17 5 9 - - 5.4
20/07:01am 12.5 11.7 11.7 95 0.4 WSW 7 11 4 6 - - 3.8
20/07:00am 12.5 11.7 11.7 95 0.4 WSW 7 13 4 7 - - 3.8
20/06:48am 12.5 11.3 11.7 95 0.4 WNW 9 13 5 7 - - 3.2
20/06:30am 12.4 11.5 11.5 94 0.5 W 7 9 4 5 - - 3.0
20/06:29am 12.4 11.8 11.6 95 0.4 W 6 9 3 5 - - 3.0
20/06:10am 12.4 11.5 11.5 94 0.5 W 7 15 4 8 - - 2.4
20/06:00am 12.4 11.1 11.3 93 0.6 W 9 15 5 8 - - 2.2
20/05:54am 12.5 11.6 11.4 93 0.6 W 7 11 4 6 - - 2.0
20/05:30am 12.5 11.0 10.6 88 1.0 WSW 9 15 5 8 - - 0.8
20/05:00am 13.1 11.2 10.5 84 1.4 WSW 11 19 6 10 - - 0.2
20/04:30am 13.0 11.5 10.4 84 1.3 W 9 15 5 8 - - 0.2
20/04:00am 12.9 11.4 10.4 85 1.3 WSW 9 11 5 6 - - 0.2
20/03:30am 12.9 11.4 10.6 86 1.2 WSW 9 17 5 9 - - 0.2
20/03:00am 13.2 11.4 10.7 85 1.3 WSW 11 17 6 9 - - 0.0
20/02:30am 13.6 10.8 10.0 79 1.9 SW 15 24 8 13 - - 0.0
20/02:00am 13.6 10.9 10.2 80 1.8 SW 15 24 8 13 - - 0.0
20/01:30am 13.3 11.5 10.7 84 1.4 SW 11 24 6 13 - - 0.0
20/01:00am 13.1 11.7 11.0 87 1.1 WSW 9 17 5 9 - - 0.0
20/12:30am 13.0 11.9 10.7 86 1.2 W 7 13 4 7 - - 0.0
20/12:00am 12.8 11.3 10.5 86 1.2 WSW 9 17 5 9 - - 0.0
 
Date/Time
EST
Temp
°C
App
Temp
°C
Dew
Point
Rel
Hum
%
Delta-T
°C
Wind Press
QNH
hPa
Press
MSL
hPa
Rain
since 9 am
mm
Dir
 
Spd
km/h
Gust
km/h
Spd
kts
Gust
kts
19/11:30pm 13.1 11.6 10.6 85 1.3 W 9 15 5 8 - - 0.0
19/11:00pm 13.2 11.6 10.2 82 1.6 WSW 9 17 5 9 - - 0.0
19/10:30pm 13.5 11.4 9.7 78 1.9 W 11 17 6 9 - - 0.0
19/10:00pm 14.1 11.9 9.3 73 2.4 WNW 11 17 6 9 - - 0.0
19/09:30pm 14.5 12.2 9.1 70 2.8 W 11 15 6 8 - - 0.0
19/09:00pm 15.3 12.6 9.0 66 3.2 SSW 13 20 7 11 - - 0.0
19/08:30pm 15.2 13.3 9.1 67 3.1 SW 9 20 5 11 - - 0.0
19/08:00pm 15.3 12.7 9.2 67 3.1 SSW 13 24 7 13 - - 0.0
19/07:30pm 15.5 12.9 9.4 67 3.1 SSW 13 28 7 15 - - 0.0
19/07:00pm 15.6 12.7 9.7 68 3.1 S 15 22 8 12 - - 0.0
19/06:30pm 15.8 12.1 10.3 70 2.9 S 20 33 11 18 - - 0.0
19/06:00pm 16.6 13.2 11.3 71 2.9 SSE 20 35 11 19 - - 0.0
19/05:30pm 16.8 13.2 10.6 67 3.3 SSE 20 35 11 19 - - 0.0
19/05:00pm 17.8 12.7 10.7 63 3.8 SSE 28 44 15 24 - - 0.0
19/04:30pm 18.3 15.5 11.4 64 3.8 SSE 17 33 9 18 - - 0.0
19/04:00pm 18.1 13.8 12.1 68 3.3 SSE 26 35 14 19 - - 0.0
19/03:30pm 18.5 15.0 12.3 67 3.4 S 22 32 12 17 - - 0.0
19/03:00pm 19.5 16.7 13.2 67 3.6 SSE 20 33 11 18 - - 0.0
19/02:30pm 19.6 16.0 13.1 66 3.7 SSE 24 35 13 19 - - 0.0
19/02:00pm 20.3 17.7 13.7 66 3.8 S 20 35 11 19 - - 0.0
19/01:30pm 20.5 17.7 14.2 67 3.7 SSE 22 33 12 18 - - 0.0
19/01:00pm 21.2 18.9 14.6 66 3.9 SSE 20 32 11 17 - - 0.0
19/12:30pm 20.6 18.0 13.8 65 3.9 S 20 30 11 16 - - 0.0
19/12:00pm 22.7 21.1 11.7 49 6.2 SSW 11 24 6 13 - - 0.0
19/11:30am 21.9 19.8 11.3 51 5.9 SW 13 20 7 11 - - 0.0
19/11:00am 21.4 20.2 11.7 54 5.4 WSW 9 19 5 10 - - 0.0
19/10:30am 21.2 19.2 11.5 54 5.4 WSW 13 22 7 12 - - 0.0
19/10:00am 20.4 18.6 10.8 54 5.2 SW 11 19 6 10 - - 0.0
19/09:30am 20.0 17.4 10.7 55 5.1 WSW 15 24 8 13 - - 0.0
19/09:00am 19.4 17.6 12.2 63 4.0 WSW 13 20 7 11 - - 3.4
19/08:30am 18.2 17.8 14.1 77 2.3 WSW 9 19 5 10 - - 3.4
19/08:00am 17.7 18.4 16.2 91 0.9 W 7 15 4 8 - - 3.4
19/07:30am 17.3 18.6 17.1 99 0.1 WNW 6 9 3 5 - - 3.4
19/07:00am 16.8 18.7 16.6 99 0.1 NW 2 6 1 3 - - 3.4
19/06:30am 16.2 16.9 15.7 97 0.3 WNW 6 9 3 5 - - 3.4
19/06:00am 16.6 18.6 16.0 96 0.4 CALM 0 0 0 0 - - 3.4
19/05:30am 16.9 18.6 16.3 96 0.4 W 2 7 1 4 - - 3.2
19/05:00am 17.5 19.5 16.9 96 0.4 W 2 7 1 4 - - 3.2
19/04:30am 17.6 19.9 16.8 95 0.5 CALM 0 6 0 3 - - 3.2
19/04:00am 18.1 19.8 17.1 94 0.6 W 4 7 2 4 - - 3.2
19/03:30am 18.1 19.4 17.1 94 0.6 NW 6 9 3 5 - - 3.2
19/03:00am 18.2 19.5 17.0 93 0.7 WNW 6 9 3 5 - - 3.2
19/02:30am 18.3 19.7 17.3 94 0.6 WNW 6 7 3 4 - - 3.2
19/02:00am 18.4 19.5 17.2 93 0.7 N 7 11 4 6 - - 3.2
19/01:30am 18.4 21.0 17.4 94 0.6 CALM 0 7 0 4 - - 3.2
19/01:13am 18.7 20.5 17.5 93 0.7 NW 4 9 2 5 - - 3.2
19/01:00am 18.6 19.9 17.6 94 0.6 NW 7 11 4 6 - - 3.0
19/12:41am 18.7 19.2 17.5 93 0.7 NNW 11 17 6 9 - - 2.8
19/12:30am 18.7 19.6 17.5 93 0.7 NNW 9 17 5 9 - - 2.6
19/12:06am 18.8 19.7 17.6 93 0.7 NNW 9 17 5 9 - - 2.4
19/12:00am 18.8 19.7 17.6 93 0.7 NNW 9 15 5 8 - - 2.4
 
Date/Time
EST
Temp
°C
App
Temp
°C
Dew
Point
Rel
Hum
%
Delta-T
°C
Wind Press
QNH
hPa
Press
MSL
hPa
Rain
since 9 am
mm
Dir
 
Spd
km/h
Gust
km/h
Spd
kts
Gust
kts
18/11:30pm 18.9 20.8 17.6 92 0.8 NNW 4 9 2 5 - - 2.0
18/11:00pm 19.1 20.4 17.2 89 1.2 W 6 7 3 4 - - 1.2
18/10:51pm 19.1 21.2 17.2 89 1.2 WNW 2 9 1 5 - - 1.0
18/10:30pm 19.0 21.3 16.8 87 1.3 CALM 0 0 0 0 - - 0.8
18/10:00pm 19.2 19.7 16.6 85 1.6 NNW 9 15 5 8 - - 0.8
18/09:34pm 20.6 18.3 15.8 74 2.9 NW 22 41 12 22 - - 0.2
18/09:30pm 21.2 19.0 16.0 72 3.1 NW 22 41 12 22 - - 0.0
18/09:14pm 23.1 21.5 16.4 66 4.1 WNW 20 28 11 15 - - 0.0
18/09:00pm 24.0 22.6 15.5 59 5.1 N 17 24 9 13 - - 0.0
18/08:30pm 23.4 23.6 15.7 62 4.6 N 9 15 5 8 - - 0.0
18/08:00pm 23.5 23.6 15.5 60 4.8 NNE 9 17 5 9 - - 0.0
18/07:30pm 23.0 23.9 16.1 65 4.2 NNE 6 13 3 7 - - 0.0
18/07:00pm 23.1 24.3 15.9 64 4.3 NNE 4 9 2 5 - - 0.0
18/06:30pm 23.5 24.4 16.1 63 4.5 NE 6 11 3 6 - - 0.0
18/06:00pm 23.8 24.0 15.8 61 4.8 NNE 9 15 5 8 - - 0.0
18/05:30pm 24.2 25.0 15.9 59 5.0 NE 6 11 3 6 - - 0.0
18/05:00pm 24.5 24.4 16.0 59 5.2 N 11 15 6 8 - - 0.0
18/04:30pm 25.0 24.6 16.2 58 5.4 N 13 22 7 12 - - 0.0
18/04:00pm 25.1 24.3 16.0 57 5.5 N 15 26 8 14 - - 0.0
18/03:30pm 25.6 24.9 16.4 56 5.7 N 15 20 8 11 - - 0.0
18/03:00pm 25.6 24.3 16.7 58 5.5 N 19 30 10 16 - - 0.0
18/02:30pm 26.2 26.1 17.0 57 5.7 NNE 13 20 7 11 - - 0.0
18/02:00pm 26.5 25.9 16.7 55 6.1 NNW 15 22 8 12 - - 0.0
18/01:30pm 26.9 26.0 16.8 54 6.3 NNW 17 26 9 14 - - 0.0
18/01:00pm 27.7 26.4 16.9 51 6.7 NNW 19 28 10 15 - - 0.0
18/12:30pm 27.5 27.3 17.7 55 6.2 NNW 15 24 8 13 - - 0.0
18/12:00pm 26.6 25.6 16.5 54 6.2 NNW 17 24 9 13 - - 0.0
18/11:30am 27.2 26.7 17.7 56 6.0 NNW 17 26 9 14 - - 0.0

Other Formats:

Comma delimited format used in spreadsheet applications
http://www.bom.gov.au/fwo/IDN60801/IDN60801.95765.axf

JavaScript Object Notation format (JSON) in row-major order
http://www.bom.gov.au/fwo/IDN60801/IDN60801.95765.json